sensor_id;sensor_type;location;lat;lon;timestamp;P1;durP1;ratioP1;P2;durP2;ratioP2
17917;SDS011;9084;50.956;3.106;2023-05-17T00:01:59;4.40;;;2.35;;
17917;SDS011;9084;50.956;3.106;2023-05-17T00:04:25;7.45;;;2.15;;
17917;SDS011;9084;50.956;3.106;2023-05-17T00:06:50;2.95;;;1.58;;
17917;SDS011;9084;50.956;3.106;2023-05-17T00:09:16;3.90;;;1.88;;
17917;SDS011;9084;50.956;3.106;2023-05-17T00:11:41;3.20;;;1.90;;
17917;SDS011;9084;50.956;3.106;2023-05-17T00:14:09;3.50;;;1.80;;
17917;SDS011;9084;50.956;3.106;2023-05-17T00:16:38;5.25;;;1.95;;
17917;SDS011;9084;50.956;3.106;2023-05-17T00:19:08;3.88;;;1.90;;
17917;SDS011;9084;50.956;3.106;2023-05-17T00:21:34;4.05;;;1.60;;
17917;SDS011;9084;50.956;3.106;2023-05-17T00:24:00;5.57;;;2.55;;
17917;SDS011;9084;50.956;3.106;2023-05-17T00:26:27;5.28;;;1.75;;
17917;SDS011;9084;50.956;3.106;2023-05-17T00:28:57;3.35;;;2.13;;
17917;SDS011;9084;50.956;3.106;2023-05-17T00:31:23;3.00;;;2.20;;
17917;SDS011;9084;50.956;3.106;2023-05-17T00:33:49;5.10;;;2.10;;
17917;SDS011;9084;50.956;3.106;2023-05-17T00:36:17;4.15;;;2.00;;
17917;SDS011;9084;50.956;3.106;2023-05-17T00:38:42;3.25;;;1.88;;
17917;SDS011;9084;50.956;3.106;2023-05-17T00:41:10;3.83;;;1.95;;
17917;SDS011;9084;50.956;3.106;2023-05-17T00:43:38;3.65;;;1.95;;
17917;SDS011;9084;50.956;3.106;2023-05-17T00:46:04;2.83;;;2.17;;
17917;SDS011;9084;50.956;3.106;2023-05-17T00:48:32;4.07;;;2.28;;
17917;SDS011;9084;50.956;3.106;2023-05-17T00:51:02;4.90;;;2.10;;
17917;SDS011;9084;50.956;3.106;2023-05-17T00:53:28;3.55;;;1.85;;
17917;SDS011;9084;50.956;3.106;2023-05-17T00:55:54;5.32;;;2.50;;
17917;SDS011;9084;50.956;3.106;2023-05-17T00:58:20;3.65;;;2.22;;
17917;SDS011;9084;50.956;3.106;2023-05-17T01:00:46;5.43;;;2.17;;
17917;SDS011;9084;50.956;3.106;2023-05-17T01:03:12;4.88;;;2.20;;
17917;SDS011;9084;50.956;3.106;2023-05-17T01:05:37;3.85;;;2.08;;
17917;SDS011;9084;50.956;3.106;2023-05-17T01:08:05;3.10;;;2.47;;
17917;SDS011;9084;50.956;3.106;2023-05-17T01:15:40;4.20;;;3.03;;
17917;SDS011;9084;50.956;3.106;2023-05-17T01:18:19;6.25;;;3.15;;
17917;SDS011;9084;50.956;3.106;2023-05-17T01:20:52;5.30;;;3.28;;
17917;SDS011;9084;50.956;3.106;2023-05-17T01:23:44;6.10;;;3.38;;
17917;SDS011;9084;50.956;3.106;2023-05-17T01:26:39;4.75;;;2.95;;
17917;SDS011;9084;50.956;3.106;2023-05-17T01:29:08;4.43;;;2.90;;
17917;SDS011;9084;50.956;3.106;2023-05-17T01:31:37;3.75;;;3.10;;
17917;SDS011;9084;50.956;3.106;2023-05-17T01:34:06;3.35;;;2.65;;
17917;SDS011;9084;50.956;3.106;2023-05-17T01:36:32;3.72;;;2.88;;
17917;SDS011;9084;50.956;3.106;2023-05-17T01:39:01;5.85;;;2.78;;
17917;SDS011;9084;50.956;3.106;2023-05-17T01:41:37;4.82;;;2.42;;
17917;SDS011;9084;50.956;3.106;2023-05-17T01:46:41;3.28;;;2.47;;
17917;SDS011;9084;50.956;3.106;2023-05-17T01:49:08;3.03;;;2.72;;
17917;SDS011;9084;50.956;3.106;2023-05-17T01:51:56;4.25;;;2.80;;
17917;SDS011;9084;50.956;3.106;2023-05-17T01:54:33;3.63;;;2.97;;
17917;SDS011;9084;50.956;3.106;2023-05-17T01:57:03;3.97;;;2.80;;
17917;SDS011;9084;50.956;3.106;2023-05-17T01:59:32;5.50;;;2.75;;
17917;SDS011;9084;50.956;3.106;2023-05-17T02:02:04;3.63;;;2.70;;
17917;SDS011;9084;50.956;3.106;2023-05-17T02:04:35;2.95;;;2.58;;
17917;SDS011;9084;50.956;3.106;2023-05-17T02:07:01;3.15;;;2.42;;
17917;SDS011;9084;50.956;3.106;2023-05-17T02:09:27;4.00;;;2.53;;
17917;SDS011;9084;50.956;3.106;2023-05-17T02:11:53;4.30;;;2.97;;
17917;SDS011;9084;50.956;3.106;2023-05-17T02:14:19;3.10;;;2.80;;
17917;SDS011;9084;50.956;3.106;2023-05-17T02:16:44;5.18;;;2.88;;
17917;SDS011;9084;50.956;3.106;2023-05-17T02:19:10;5.03;;;2.60;;
17917;SDS011;9084;50.956;3.106;2023-05-17T02:21:37;4.07;;;2.65;;
17917;SDS011;9084;50.956;3.106;2023-05-17T02:24:05;3.33;;;2.40;;
17917;SDS011;9084;50.956;3.106;2023-05-17T02:26:33;6.53;;;2.38;;
17917;SDS011;9084;50.956;3.106;2023-05-17T02:28:59;4.07;;;2.50;;
17917;SDS011;9084;50.956;3.106;2023-05-17T02:31:25;6.22;;;2.75;;
17917;SDS011;9084;50.956;3.106;2023-05-17T02:33:51;4.53;;;3.05;;
17917;SDS011;9084;50.956;3.106;2023-05-17T02:36:17;3.70;;;2.55;;
17917;SDS011;9084;50.956;3.106;2023-05-17T02:38:45;3.35;;;2.63;;
17917;SDS011;9084;50.956;3.106;2023-05-17T02:41:11;4.95;;;2.60;;
17917;SDS011;9084;50.956;3.106;2023-05-17T02:43:37;4.70;;;3.05;;
17917;SDS011;9084;50.956;3.106;2023-05-17T02:46:04;4.85;;;3.00;;
17917;SDS011;9084;50.956;3.106;2023-05-17T02:48:30;3.72;;;2.58;;
17917;SDS011;9084;50.956;3.106;2023-05-17T02:50:58;4.03;;;2.70;;
17917;SDS011;9084;50.956;3.106;2023-05-17T02:53:24;5.80;;;3.13;;
17917;SDS011;9084;50.956;3.106;2023-05-17T02:55:52;3.13;;;2.80;;
17917;SDS011;9084;50.956;3.106;2023-05-17T02:58:22;3.55;;;3.00;;
17917;SDS011;9084;50.956;3.106;2023-05-17T03:00:48;3.35;;;2.60;;
17917;SDS011;9084;50.956;3.106;2023-05-17T03:03:14;5.22;;;3.00;;
17917;SDS011;9084;50.956;3.106;2023-05-17T03:05:40;5.18;;;3.08;;
17917;SDS011;9084;50.956;3.106;2023-05-17T03:08:08;3.55;;;2.80;;
17917;SDS011;9084;50.956;3.106;2023-05-17T03:10:34;3.80;;;3.13;;
17917;SDS011;9084;50.956;3.106;2023-05-17T03:13:00;4.32;;;3.30;;
17917;SDS011;9084;50.956;3.106;2023-05-17T03:15:25;5.88;;;3.20;;
17917;SDS011;9084;50.956;3.106;2023-05-17T03:17:53;4.40;;;2.72;;
17917;SDS011;9084;50.956;3.106;2023-05-17T03:20:20;4.63;;;3.08;;
17917;SDS011;9084;50.956;3.106;2023-05-17T03:22:46;3.55;;;2.97;;
17917;SDS011;9084;50.956;3.106;2023-05-17T03:25:15;5.80;;;3.25;;
17917;SDS011;9084;50.956;3.106;2023-05-17T03:27:41;3.78;;;2.97;;
17917;SDS011;9084;50.956;3.106;2023-05-17T03:30:06;5.72;;;3.22;;
17917;SDS011;9084;50.956;3.106;2023-05-17T03:32:32;5.07;;;3.20;;
17917;SDS011;9084;50.956;3.106;2023-05-17T03:34:58;5.88;;;3.20;;
17917;SDS011;9084;50.956;3.106;2023-05-17T03:37:24;4.30;;;3.17;;
17917;SDS011;9084;50.956;3.106;2023-05-17T03:39:51;4.40;;;2.72;;
17917;SDS011;9084;50.956;3.106;2023-05-17T03:42:17;4.75;;;2.53;;
17917;SDS011;9084;50.956;3.106;2023-05-17T03:44:43;4.75;;;3.22;;
17917;SDS011;9084;50.956;3.106;2023-05-17T03:47:08;3.90;;;2.30;;
17917;SDS011;9084;50.956;3.106;2023-05-17T03:49:34;4.70;;;2.53;;
17917;SDS011;9084;50.956;3.106;2023-05-17T03:52:05;2.92;;;2.60;;
17917;SDS011;9084;50.956;3.106;2023-05-17T03:54:33;5.68;;;2.78;;
17917;SDS011;9084;50.956;3.106;2023-05-17T03:56:59;6.80;;;2.90;;
17917;SDS011;9084;50.956;3.106;2023-05-17T03:59:25;4.75;;;2.83;;
17917;SDS011;9084;50.956;3.106;2023-05-17T04:01:50;3.33;;;2.75;;
17917;SDS011;9084;50.956;3.106;2023-05-17T04:04:18;4.03;;;2.35;;
17917;SDS011;9084;50.956;3.106;2023-05-17T04:06:44;5.88;;;2.80;;
17917;SDS011;9084;50.956;3.106;2023-05-17T04:09:12;6.18;;;3.10;;
17917;SDS011;9084;50.956;3.106;2023-05-17T04:11:40;6.28;;;3.33;;
17917;SDS011;9084;50.956;3.106;2023-05-17T04:14:06;9.25;;;3.08;;
17917;SDS011;9084;50.956;3.106;2023-05-17T04:16:32;4.65;;;3.13;;
17917;SDS011;9084;50.956;3.106;2023-05-17T04:18:58;4.32;;;3.63;;
17917;SDS011;9084;50.956;3.106;2023-05-17T04:21:24;4.63;;;3.00;;
17917;SDS011;9084;50.956;3.106;2023-05-17T04:23:50;5.85;;;3.00;;
17917;SDS011;9084;50.956;3.106;2023-05-17T04:26:19;4.30;;;3.15;;
17917;SDS011;9084;50.956;3.106;2023-05-17T04:28:46;6.55;;;3.50;;
17917;SDS011;9084;50.956;3.106;2023-05-17T04:31:16;5.25;;;3.30;;
17917;SDS011;9084;50.956;3.106;2023-05-17T04:33:44;9.77;;;4.00;;
17917;SDS011;9084;50.956;3.106;2023-05-17T04:36:10;6.13;;;3.20;;
17917;SDS011;9084;50.956;3.106;2023-05-17T04:38:36;8.23;;;3.88;;
17917;SDS011;9084;50.956;3.106;2023-05-17T04:41:06;6.20;;;3.65;;
17917;SDS011;9084;50.956;3.106;2023-05-17T04:43:33;4.30;;;3.58;;
17917;SDS011;9084;50.956;3.106;2023-05-17T04:45:59;9.43;;;3.80;;
17917;SDS011;9084;50.956;3.106;2023-05-17T04:48:25;5.38;;;3.20;;
17917;SDS011;9084;50.956;3.106;2023-05-17T04:50:54;7.57;;;3.60;;
17917;SDS011;9084;50.956;3.106;2023-05-17T04:53:20;8.35;;;3.53;;
17917;SDS011;9084;50.956;3.106;2023-05-17T04:55:46;7.03;;;3.67;;
17917;SDS011;9084;50.956;3.106;2023-05-17T04:58:14;6.85;;;3.72;;
17917;SDS011;9084;50.956;3.106;2023-05-17T05:00:40;7.18;;;3.85;;
17917;SDS011;9084;50.956;3.106;2023-05-17T05:03:06;6.18;;;3.97;;
17917;SDS011;9084;50.956;3.106;2023-05-17T05:05:31;5.97;;;3.60;;
17917;SDS011;9084;50.956;3.106;2023-05-17T05:07:59;10.88;;;3.80;;
17917;SDS011;9084;50.956;3.106;2023-05-17T05:10:27;7.18;;;3.80;;
17917;SDS011;9084;50.956;3.106;2023-05-17T05:12:55;7.15;;;4.07;;
17917;SDS011;9084;50.956;3.106;2023-05-17T05:15:22;4.13;;;3.45;;
17917;SDS011;9084;50.956;3.106;2023-05-17T05:17:50;7.63;;;3.42;;
17917;SDS011;9084;50.956;3.106;2023-05-17T05:20:18;8.70;;;4.32;;
17917;SDS011;9084;50.956;3.106;2023-05-17T05:22:44;7.03;;;3.83;;
17917;SDS011;9084;50.956;3.106;2023-05-17T05:25:10;8.20;;;4.20;;
17917;SDS011;9084;50.956;3.106;2023-05-17T05:27:35;10.65;;;5.03;;
17917;SDS011;9084;50.956;3.106;2023-05-17T05:30:01;12.93;;;4.85;;
17917;SDS011;9084;50.956;3.106;2023-05-17T05:32:27;16.60;;;5.35;;
17917;SDS011;9084;50.956;3.106;2023-05-17T05:34:53;18.23;;;6.50;;
17917;SDS011;9084;50.956;3.106;2023-05-17T05:37:18;9.48;;;4.85;;
17917;SDS011;9084;50.956;3.106;2023-05-17T05:39:44;10.85;;;5.38;;
17917;SDS011;9084;50.956;3.106;2023-05-17T05:42:15;17.33;;;6.13;;
17917;SDS011;9084;50.956;3.106;2023-05-17T05:44:40;15.88;;;5.07;;
17917;SDS011;9084;50.956;3.106;2023-05-17T05:47:08;11.40;;;4.78;;
17917;SDS011;9084;50.956;3.106;2023-05-17T05:49:34;8.43;;;4.88;;
17917;SDS011;9084;50.956;3.106;2023-05-17T05:52:00;7.72;;;4.18;;
17917;SDS011;9084;50.956;3.106;2023-05-17T05:54:25;6.07;;;4.28;;
17917;SDS011;9084;50.956;3.106;2023-05-17T05:56:51;7.95;;;3.92;;
17917;SDS011;9084;50.956;3.106;2023-05-17T05:59:17;4.57;;;3.88;;
17917;SDS011;9084;50.956;3.106;2023-05-17T06:01:45;6.65;;;3.63;;
17917;SDS011;9084;50.956;3.106;2023-05-17T06:04:11;6.03;;;4.70;;
17917;SDS011;9084;50.956;3.106;2023-05-17T06:06:37;6.28;;;4.38;;
17917;SDS011;9084;50.956;3.106;2023-05-17T06:09:02;7.80;;;4.75;;
17917;SDS011;9084;50.956;3.106;2023-05-17T06:11:30;7.22;;;4.18;;
17917;SDS011;9084;50.956;3.106;2023-05-17T06:13:59;5.60;;;4.22;;
17917;SDS011;9084;50.956;3.106;2023-05-17T06:16:26;7.40;;;3.97;;
17917;SDS011;9084;50.956;3.106;2023-05-17T06:18:52;8.35;;;4.20;;
17917;SDS011;9084;50.956;3.106;2023-05-17T06:21:22;7.43;;;4.18;;
17917;SDS011;9084;50.956;3.106;2023-05-17T06:23:49;6.38;;;4.50;;
17917;SDS011;9084;50.956;3.106;2023-05-17T06:26:15;6.82;;;4.20;;
17917;SDS011;9084;50.956;3.106;2023-05-17T06:28:40;7.97;;;4.63;;
17917;SDS011;9084;50.956;3.106;2023-05-17T06:31:08;4.90;;;4.45;;
17917;SDS011;9084;50.956;3.106;2023-05-17T06:33:34;4.78;;;4.32;;
17917;SDS011;9084;50.956;3.106;2023-05-17T06:36:02;7.28;;;5.00;;
17917;SDS011;9084;50.956;3.106;2023-05-17T06:38:28;6.82;;;4.90;;
17917;SDS011;9084;50.956;3.106;2023-05-17T06:40:54;6.97;;;4.30;;
17917;SDS011;9084;50.956;3.106;2023-05-17T06:43:22;5.90;;;4.20;;
17917;SDS011;9084;50.956;3.106;2023-05-17T06:45:48;7.03;;;4.75;;
17917;SDS011;9084;50.956;3.106;2023-05-17T06:48:17;6.97;;;5.00;;
17917;SDS011;9084;50.956;3.106;2023-05-17T06:50:47;5.43;;;4.45;;
17917;SDS011;9084;50.956;3.106;2023-05-17T06:53:15;6.45;;;4.15;;
17917;SDS011;9084;50.956;3.106;2023-05-17T06:55:43;5.20;;;4.13;;
17917;SDS011;9084;50.956;3.106;2023-05-17T06:58:09;7.07;;;4.32;;
17917;SDS011;9084;50.956;3.106;2023-05-17T07:00:35;5.35;;;4.05;;
17917;SDS011;9084;50.956;3.106;2023-05-17T07:03:03;7.07;;;4.10;;
17917;SDS011;9084;50.956;3.106;2023-05-17T07:05:29;8.82;;;4.00;;
17917;SDS011;9084;50.956;3.106;2023-05-17T07:07:57;9.13;;;4.13;;
17917;SDS011;9084;50.956;3.106;2023-05-17T07:10:23;6.25;;;3.88;;
17917;SDS011;9084;50.956;3.106;2023-05-17T07:12:51;5.38;;;3.60;;
17917;SDS011;9084;50.956;3.106;2023-05-17T07:15:20;7.45;;;4.00;;
17917;SDS011;9084;50.956;3.106;2023-05-17T07:17:48;4.75;;;3.55;;
17917;SDS011;9084;50.956;3.106;2023-05-17T07:20:14;7.68;;;3.75;;
17917;SDS011;9084;50.956;3.106;2023-05-17T07:22:44;5.35;;;3.53;;
17917;SDS011;9084;50.956;3.106;2023-05-17T07:25:12;6.45;;;3.90;;
17917;SDS011;9084;50.956;3.106;2023-05-17T07:27:41;5.18;;;3.60;;
17917;SDS011;9084;50.956;3.106;2023-05-17T07:30:07;7.78;;;3.65;;
17917;SDS011;9084;50.956;3.106;2023-05-17T07:32:35;7.75;;;3.40;;
17917;SDS011;9084;50.956;3.106;2023-05-17T07:35:01;5.63;;;2.95;;
17917;SDS011;9084;50.956;3.106;2023-05-17T07:37:27;6.18;;;3.63;;
17917;SDS011;9084;50.956;3.106;2023-05-17T07:39:55;6.63;;;3.47;;
17917;SDS011;9084;50.956;3.106;2023-05-17T07:42:20;3.08;;;2.42;;
17917;SDS011;9084;50.956;3.106;2023-05-17T07:44:46;5.07;;;3.30;;
17917;SDS011;9084;50.956;3.106;2023-05-17T07:47:13;6.25;;;3.20;;
17917;SDS011;9084;50.956;3.106;2023-05-17T07:49:39;6.50;;;3.03;;
17917;SDS011;9084;50.956;3.106;2023-05-17T07:52:05;3.72;;;2.83;;
17917;SDS011;9084;50.956;3.106;2023-05-17T07:54:33;9.93;;;3.80;;
17917;SDS011;9084;50.956;3.106;2023-05-17T07:56:59;4.38;;;2.90;;
17917;SDS011;9084;50.956;3.106;2023-05-17T07:59:27;8.65;;;3.60;;
17917;SDS011;9084;50.956;3.106;2023-05-17T08:01:55;5.53;;;3.30;;
17917;SDS011;9084;50.956;3.106;2023-05-17T08:04:20;4.32;;;3.08;;
17917;SDS011;9084;50.956;3.106;2023-05-17T08:06:48;5.82;;;3.08;;
17917;SDS011;9084;50.956;3.106;2023-05-17T08:09:16;5.18;;;3.53;;
17917;SDS011;9084;50.956;3.106;2023-05-17T08:11:43;7.40;;;3.22;;
17917;SDS011;9084;50.956;3.106;2023-05-17T08:14:15;7.00;;;3.03;;
17917;SDS011;9084;50.956;3.106;2023-05-17T08:16:46;5.50;;;2.95;;
17917;SDS011;9084;50.956;3.106;2023-05-17T08:19:16;5.32;;;3.50;;
17917;SDS011;9084;50.956;3.106;2023-05-17T08:21:42;6.80;;;3.45;;
17917;SDS011;9084;50.956;3.106;2023-05-17T08:24:10;8.05;;;2.38;;
17917;SDS011;9084;50.956;3.106;2023-05-17T08:26:36;6.40;;;2.67;;
17917;SDS011;9084;50.956;3.106;2023-05-17T08:29:02;9.48;;;2.83;;
17917;SDS011;9084;50.956;3.106;2023-05-17T08:31:30;5.97;;;2.60;;
17917;SDS011;9084;50.956;3.106;2023-05-17T08:33:58;6.88;;;2.70;;
17917;SDS011;9084;50.956;3.106;2023-05-17T08:36:24;5.90;;;3.33;;
17917;SDS011;9084;50.956;3.106;2023-05-17T08:38:50;5.95;;;3.42;;
17917;SDS011;9084;50.956;3.106;2023-05-17T08:41:16;5.60;;;3.03;;
17917;SDS011;9084;50.956;3.106;2023-05-17T08:43:45;5.93;;;2.90;;
17917;SDS011;9084;50.956;3.106;2023-05-17T08:46:12;3.38;;;2.42;;
17917;SDS011;9084;50.956;3.106;2023-05-17T08:48:39;4.50;;;2.40;;
17917;SDS011;9084;50.956;3.106;2023-05-17T08:51:09;6.20;;;2.88;;
17917;SDS011;9084;50.956;3.106;2023-05-17T08:53:36;3.90;;;2.65;;
17917;SDS011;9084;50.956;3.106;2023-05-17T08:56:04;6.75;;;3.08;;
17917;SDS011;9084;50.956;3.106;2023-05-17T08:58:32;4.75;;;2.80;;
17917;SDS011;9084;50.956;3.106;2023-05-17T09:01:01;6.22;;;3.13;;
17917;SDS011;9084;50.956;3.106;2023-05-17T09:03:28;3.50;;;2.45;;
17917;SDS011;9084;50.956;3.106;2023-05-17T09:05:56;3.92;;;2.28;;
17917;SDS011;9084;50.956;3.106;2023-05-17T09:08:23;4.20;;;2.25;;
17917;SDS011;9084;50.956;3.106;2023-05-17T09:10:49;4.25;;;2.38;;
17917;SDS011;9084;50.956;3.106;2023-05-17T09:13:18;3.60;;;2.38;;
17917;SDS011;9084;50.956;3.106;2023-05-17T09:15:48;4.28;;;2.42;;
17917;SDS011;9084;50.956;3.106;2023-05-17T09:18:13;3.75;;;2.10;;
17917;SDS011;9084;50.956;3.106;2023-05-17T09:20:46;3.83;;;2.08;;
17917;SDS011;9084;50.956;3.106;2023-05-17T09:23:19;4.20;;;2.28;;
17917;SDS011;9084;50.956;3.106;2023-05-17T09:25:46;4.18;;;1.98;;
17917;SDS011;9084;50.956;3.106;2023-05-17T09:28:17;5.10;;;2.42;;
17917;SDS011;9084;50.956;3.106;2023-05-17T09:30:47;3.63;;;1.63;;
17917;SDS011;9084;50.956;3.106;2023-05-17T09:33:13;4.68;;;2.20;;
17917;SDS011;9084;50.956;3.106;2023-05-17T09:35:39;5.50;;;2.13;;
17917;SDS011;9084;50.956;3.106;2023-05-17T09:38:10;2.78;;;1.73;;
17917;SDS011;9084;50.956;3.106;2023-05-17T09:40:41;3.58;;;2.20;;
17917;SDS011;9084;50.956;3.106;2023-05-17T09:43:07;4.20;;;2.15;;
17917;SDS011;9084;50.956;3.106;2023-05-17T09:45:34;4.45;;;2.25;;
17917;SDS011;9084;50.956;3.106;2023-05-17T09:48:10;5.18;;;2.15;;
17917;SDS011;9084;50.956;3.106;2023-05-17T09:50:43;5.30;;;1.95;;
17917;SDS011;9084;50.956;3.106;2023-05-17T09:53:29;5.78;;;2.40;;
17917;SDS011;9084;50.956;3.106;2023-05-17T09:56:02;5.10;;;1.90;;
17917;SDS011;9084;50.956;3.106;2023-05-17T09:58:32;5.72;;;2.30;;
17917;SDS011;9084;50.956;3.106;2023-05-17T10:01:03;3.08;;;1.95;;
17917;SDS011;9084;50.956;3.106;2023-05-17T10:03:33;6.75;;;2.00;;
17917;SDS011;9084;50.956;3.106;2023-05-17T10:06:00;2.13;;;1.67;;
17917;SDS011;9084;50.956;3.106;2023-05-17T10:08:31;3.20;;;1.73;;
17917;SDS011;9084;50.956;3.106;2023-05-17T10:11:07;4.57;;;1.85;;
17917;SDS011;9084;50.956;3.106;2023-05-17T10:16:12;2.88;;;1.85;;
17917;SDS011;9084;50.956;3.106;2023-05-17T10:18:39;4.75;;;2.10;;
17917;SDS011;9084;50.956;3.106;2023-05-17T10:21:10;4.55;;;2.15;;
17917;SDS011;9084;50.956;3.106;2023-05-17T10:23:36;4.25;;;2.10;;
17917;SDS011;9084;50.956;3.106;2023-05-17T10:26:08;5.53;;;1.90;;
17917;SDS011;9084;50.956;3.106;2023-05-17T10:28:37;4.75;;;2.13;;
17917;SDS011;9084;50.956;3.106;2023-05-17T10:31:03;4.90;;;2.28;;
17917;SDS011;9084;50.956;3.106;2023-05-17T10:33:33;6.22;;;2.47;;
17917;SDS011;9084;50.956;3.106;2023-05-17T10:36:01;3.65;;;2.10;;
17917;SDS011;9084;50.956;3.106;2023-05-17T10:38:30;6.05;;;2.00;;
17917;SDS011;9084;50.956;3.106;2023-05-17T10:40:56;3.47;;;1.80;;
17917;SDS011;9084;50.956;3.106;2023-05-17T10:43:23;3.67;;;1.67;;
17917;SDS011;9084;50.956;3.106;2023-05-17T10:45:53;3.88;;;1.90;;
17917;SDS011;9084;50.956;3.106;2023-05-17T10:48:18;4.38;;;1.90;;
17917;SDS011;9084;50.956;3.106;2023-05-17T10:50:46;5.60;;;1.60;;
17917;SDS011;9084;50.956;3.106;2023-05-17T10:53:15;3.95;;;1.65;;
17917;SDS011;9084;50.956;3.106;2023-05-17T10:55:42;7.28;;;1.80;;
17917;SDS011;9084;50.956;3.106;2023-05-17T11:00:51;3.55;;;1.63;;
17917;SDS011;9084;50.956;3.106;2023-05-17T11:08:35;2.13;;;1.23;;
17917;SDS011;9084;50.956;3.106;2023-05-17T11:11:15;3.40;;;1.65;;
17917;SDS011;9084;50.956;3.106;2023-05-17T11:13:45;3.65;;;2.17;;
17917;SDS011;9084;50.956;3.106;2023-05-17T11:16:14;2.97;;;1.27;;
17917;SDS011;9084;50.956;3.106;2023-05-17T11:18:50;3.63;;;1.92;;
17917;SDS011;9084;50.956;3.106;2023-05-17T11:21:17;3.65;;;1.98;;
17917;SDS011;9084;50.956;3.106;2023-05-17T11:23:44;4.13;;;1.88;;
17917;SDS011;9084;50.956;3.106;2023-05-17T11:26:23;3.85;;;1.85;;
17917;SDS011;9084;50.956;3.106;2023-05-17T11:29:00;7.03;;;1.63;;
17917;SDS011;9084;50.956;3.106;2023-05-17T11:31:35;3.10;;;1.58;;
17917;SDS011;9084;50.956;3.106;2023-05-17T11:34:09;3.53;;;1.75;;
17917;SDS011;9084;50.956;3.106;2023-05-17T11:36:50;3.42;;;1.75;;
17917;SDS011;9084;50.956;3.106;2023-05-17T11:39:20;2.60;;;1.30;;
17917;SDS011;9084;50.956;3.106;2023-05-17T11:41:48;5.03;;;2.00;;
17917;SDS011;9084;50.956;3.106;2023-05-17T11:44:30;4.85;;;1.77;;
17917;SDS011;9084;50.956;3.106;2023-05-17T11:47:00;3.13;;;1.77;;
17917;SDS011;9084;50.956;3.106;2023-05-17T11:49:33;4.00;;;1.45;;
17917;SDS011;9084;50.956;3.106;2023-05-17T11:52:02;5.90;;;1.80;;
17917;SDS011;9084;50.956;3.106;2023-05-17T11:54:31;3.58;;;1.60;;
17917;SDS011;9084;50.956;3.106;2023-05-17T11:56:59;3.25;;;1.50;;
17917;SDS011;9084;50.956;3.106;2023-05-17T11:59:33;5.90;;;1.40;;
17917;SDS011;9084;50.956;3.106;2023-05-17T12:02:02;4.75;;;1.83;;
17917;SDS011;9084;50.956;3.106;2023-05-17T12:04:33;5.53;;;1.60;;
17917;SDS011;9084;50.956;3.106;2023-05-17T12:07:08;5.13;;;1.58;;
17917;SDS011;9084;50.956;3.106;2023-05-17T12:09:37;3.88;;;1.45;;
17917;SDS011;9084;50.956;3.106;2023-05-17T12:12:04;3.88;;;1.33;;
17917;SDS011;9084;50.956;3.106;2023-05-17T12:14:30;4.45;;;1.48;;
17917;SDS011;9084;50.956;3.106;2023-05-17T12:16:58;4.03;;;1.25;;
17917;SDS011;9084;50.956;3.106;2023-05-17T12:19:26;3.53;;;1.13;;
17917;SDS011;9084;50.956;3.106;2023-05-17T12:21:56;6.20;;;1.52;;
17917;SDS011;9084;50.956;3.106;2023-05-17T12:24:41;2.92;;;1.30;;
17917;SDS011;9084;50.956;3.106;2023-05-17T12:27:12;5.13;;;1.88;;
17917;SDS011;9084;50.956;3.106;2023-05-17T12:29:48;4.63;;;1.77;;
17917;SDS011;9084;50.956;3.106;2023-05-17T12:32:14;6.35;;;1.60;;
17917;SDS011;9084;50.956;3.106;2023-05-17T12:34:40;3.90;;;1.92;;
17917;SDS011;9084;50.956;3.106;2023-05-17T12:37:09;9.10;;;2.00;;
17917;SDS011;9084;50.956;3.106;2023-05-17T12:39:37;4.20;;;1.70;;
17917;SDS011;9084;50.956;3.106;2023-05-17T12:42:06;7.13;;;1.92;;
17917;SDS011;9084;50.956;3.106;2023-05-17T12:44:35;3.67;;;1.83;;
17917;SDS011;9084;50.956;3.106;2023-05-17T12:47:05;4.47;;;1.70;;
17917;SDS011;9084;50.956;3.106;2023-05-17T12:49:37;5.43;;;1.83;;
17917;SDS011;9084;50.956;3.106;2023-05-17T12:52:03;4.78;;;1.70;;
17917;SDS011;9084;50.956;3.106;2023-05-17T12:54:29;4.13;;;1.65;;
17917;SDS011;9084;50.956;3.106;2023-05-17T12:57:07;4.53;;;1.88;;
17917;SDS011;9084;50.956;3.106;2023-05-17T12:59:44;5.47;;;1.77;;
17917;SDS011;9084;50.956;3.106;2023-05-17T13:02:17;4.00;;;1.40;;
17917;SDS011;9084;50.956;3.106;2023-05-17T13:04:50;5.57;;;2.13;;
17917;SDS011;9084;50.956;3.106;2023-05-17T13:07:22;6.10;;;1.92;;
17917;SDS011;9084;50.956;3.106;2023-05-17T13:09:48;6.38;;;2.22;;
17917;SDS011;9084;50.956;3.106;2023-05-17T13:12:21;7.85;;;2.25;;
17917;SDS011;9084;50.956;3.106;2023-05-17T13:14:50;7.55;;;1.92;;
17917;SDS011;9084;50.956;3.106;2023-05-17T13:19:50;3.75;;;1.70;;
17917;SDS011;9084;50.956;3.106;2023-05-17T13:22:18;7.22;;;2.10;;
17917;SDS011;9084;50.956;3.106;2023-05-17T13:24:44;4.70;;;1.88;;
17917;SDS011;9084;50.956;3.106;2023-05-17T13:27:10;5.55;;;1.90;;
17917;SDS011;9084;50.956;3.106;2023-05-17T13:29:39;6.10;;;2.30;;
17917;SDS011;9084;50.956;3.106;2023-05-17T13:32:09;6.80;;;2.10;;
17917;SDS011;9084;50.956;3.106;2023-05-17T13:34:36;6.30;;;2.45;;
17917;SDS011;9084;50.956;3.106;2023-05-17T13:37:05;4.68;;;1.92;;
17917;SDS011;9084;50.956;3.106;2023-05-17T13:39:31;4.78;;;1.88;;
17917;SDS011;9084;50.956;3.106;2023-05-17T13:41:59;5.97;;;1.60;;
17917;SDS011;9084;50.956;3.106;2023-05-17T13:44:25;7.45;;;1.85;;
17917;SDS011;9084;50.956;3.106;2023-05-17T13:46:56;5.32;;;2.10;;
17917;SDS011;9084;50.956;3.106;2023-05-17T13:49:22;7.13;;;2.10;;
17917;SDS011;9084;50.956;3.106;2023-05-17T13:51:48;3.75;;;1.75;;
17917;SDS011;9084;50.956;3.106;2023-05-17T13:54:15;4.28;;;1.45;;
17917;SDS011;9084;50.956;3.106;2023-05-17T13:56:44;8.93;;;2.50;;
17917;SDS011;9084;50.956;3.106;2023-05-17T13:59:12;6.60;;;1.67;;
17917;SDS011;9084;50.956;3.106;2023-05-17T14:01:39;5.47;;;1.67;;
17917;SDS011;9084;50.956;3.106;2023-05-17T14:04:07;4.30;;;1.65;;
17917;SDS011;9084;50.956;3.106;2023-05-17T14:06:38;4.97;;;1.80;;
17917;SDS011;9084;50.956;3.106;2023-05-17T14:09:03;5.05;;;1.90;;
17917;SDS011;9084;50.956;3.106;2023-05-17T14:11:33;3.17;;;1.38;;
17917;SDS011;9084;50.956;3.106;2023-05-17T14:14:02;5.40;;;2.28;;
17917;SDS011;9084;50.956;3.106;2023-05-17T14:16:28;11.65;;;2.25;;
17917;SDS011;9084;50.956;3.106;2023-05-17T14:18:53;7.28;;;2.30;;
17917;SDS011;9084;50.956;3.106;2023-05-17T14:21:19;5.07;;;1.73;;
17917;SDS011;9084;50.956;3.106;2023-05-17T14:23:45;6.97;;;2.20;;
17917;SDS011;9084;50.956;3.106;2023-05-17T14:26:10;5.88;;;1.70;;
17917;SDS011;9084;50.956;3.106;2023-05-17T14:28:36;6.18;;;1.80;;
17917;SDS011;9084;50.956;3.106;2023-05-17T14:31:07;3.83;;;1.60;;
17917;SDS011;9084;50.956;3.106;2023-05-17T14:33:36;6.63;;;1.70;;
17917;SDS011;9084;50.956;3.106;2023-05-17T14:36:04;3.75;;;1.80;;
17917;SDS011;9084;50.956;3.106;2023-05-17T14:38:30;3.50;;;1.48;;
17917;SDS011;9084;50.956;3.106;2023-05-17T14:40:56;4.95;;;1.90;;
17917;SDS011;9084;50.956;3.106;2023-05-17T14:43:22;4.45;;;1.70;;
17917;SDS011;9084;50.956;3.106;2023-05-17T14:45:50;4.50;;;1.90;;
17917;SDS011;9084;50.956;3.106;2023-05-17T14:48:16;2.70;;;1.40;;
17917;SDS011;9084;50.956;3.106;2023-05-17T14:50:42;3.30;;;1.30;;
17917;SDS011;9084;50.956;3.106;2023-05-17T14:53:10;4.03;;;1.50;;
17917;SDS011;9084;50.956;3.106;2023-05-17T14:55:38;4.75;;;1.70;;
17917;SDS011;9084;50.956;3.106;2023-05-17T14:58:04;3.50;;;1.58;;
17917;SDS011;9084;50.956;3.106;2023-05-17T15:00:30;4.03;;;1.48;;
17917;SDS011;9084;50.956;3.106;2023-05-17T15:02:56;3.38;;;1.50;;
17917;SDS011;9084;50.956;3.106;2023-05-17T15:05:22;3.10;;;1.52;;
17917;SDS011;9084;50.956;3.106;2023-05-17T15:07:48;4.30;;;1.40;;
17917;SDS011;9084;50.956;3.106;2023-05-17T15:10:18;6.47;;;1.75;;
17917;SDS011;9084;50.956;3.106;2023-05-17T15:12:46;5.18;;;1.42;;
17917;SDS011;9084;50.956;3.106;2023-05-17T15:15:12;3.38;;;1.58;;
17917;SDS011;9084;50.956;3.106;2023-05-17T15:17:40;4.57;;;1.40;;
17917;SDS011;9084;50.956;3.106;2023-05-17T15:20:09;5.00;;;1.13;;
17917;SDS011;9084;50.956;3.106;2023-05-17T15:22:35;4.22;;;1.60;;
17917;SDS011;9084;50.956;3.106;2023-05-17T15:25:03;4.45;;;1.35;;
17917;SDS011;9084;50.956;3.106;2023-05-17T15:27:30;7.00;;;1.83;;